sensor_id;sensor_type;location;lat;lon;timestamp;temperature;humidity
21001;DHT22;10658;50.920;12.238;2022-11-22T00:02:39;-1.70;99.90
21001;DHT22;10658;50.920;12.238;2022-11-22T00:06:40;-1.70;99.90
21001;DHT22;10658;50.920;12.238;2022-11-22T00:10:41;-1.60;99.90
21001;DHT22;10658;50.920;12.238;2022-11-22T00:14:43;-1.60;99.90
21001;DHT22;10658;50.920;12.238;2022-11-22T00:18:44;-1.70;99.90
21001;DHT22;10658;50.920;12.238;2022-11-22T00:22:45;-1.70;99.90
21001;DHT22;10658;50.920;12.238;2022-11-22T00:26:46;-1.60;99.90
21001;DHT22;10658;50.920;12.238;2022-11-22T00:30:47;-1.70;99.90
21001;DHT22;10658;50.920;12.238;2022-11-22T00:34:48;-1.70;99.90
21001;DHT22;10658;50.920;12.238;2022-11-22T00:38:50;-1.70;99.90
21001;DHT22;10658;50.920;12.238;2022-11-22T00:42:50;-1.70;99.90
21001;DHT22;10658;50.920;12.238;2022-11-22T00:46:51;-1.70;99.90
21001;DHT22;10658;50.920;12.238;2022-11-22T00:50:53;-1.70;99.90
21001;DHT22;10658;50.920;12.238;2022-11-22T00:54:56;-1.70;99.90
21001;DHT22;10658;50.920;12.238;2022-11-22T00:58:57;-1.70;99.90
21001;DHT22;10658;50.920;12.238;2022-11-22T01:02:58;-1.70;99.90
21001;DHT22;10658;50.920;12.238;2022-11-22T01:06:59;-1.70;99.90
21001;DHT22;10658;50.920;12.238;2022-11-22T01:11:01;-1.70;99.90
21001;DHT22;10658;50.920;12.238;2022-11-22T01:15:03;-1.60;99.90
21001;DHT22;10658;50.920;12.238;2022-11-22T01:19:06;-1.70;99.90
21001;DHT22;10658;50.920;12.238;2022-11-22T01:23:07;-1.70;99.90
21001;DHT22;10658;50.920;12.238;2022-11-22T01:27:08;-1.70;99.90
21001;DHT22;10658;50.920;12.238;2022-11-22T01:31:09;-1.70;99.90
21001;DHT22;10658;50.920;12.238;2022-11-22T01:35:10;-1.70;99.90
21001;DHT22;10658;50.920;12.238;2022-11-22T01:39:12;-1.70;99.90
21001;DHT22;10658;50.920;12.238;2022-11-22T01:43:19;-1.70;99.90
21001;DHT22;10658;50.920;12.238;2022-11-22T01:47:24;-1.70;99.90
21001;DHT22;10658;50.920;12.238;2022-11-22T01:51:28;-1.80;99.90
21001;DHT22;10658;50.920;12.238;2022-11-22T01:55:33;-1.80;99.90
21001;DHT22;10658;50.920;12.238;2022-11-22T01:59:38;-1.80;99.90
21001;DHT22;10658;50.920;12.238;2022-11-22T02:03:44;-1.90;99.90
21001;DHT22;10658;50.920;12.238;2022-11-22T02:08:29;-1.80;99.90
21001;DHT22;10658;50.920;12.238;2022-11-22T02:12:28;-1.80;99.90
21001;DHT22;10658;50.920;12.238;2022-11-22T02:16:34;-1.90;99.90
21001;DHT22;10658;50.920;12.238;2022-11-22T02:20:37;-1.90;99.90
21001;DHT22;10658;50.920;12.238;2022-11-22T02:24:42;-2.00;99.90
21001;DHT22;10658;50.920;12.238;2022-11-22T02:28:46;-2.00;99.90
21001;DHT22;10658;50.920;12.238;2022-11-22T02:32:47;-2.00;99.90
21001;DHT22;10658;50.920;12.238;2022-11-22T02:36:50;-1.90;99.90
21001;DHT22;10658;50.920;12.238;2022-11-22T02:40:56;-1.90;99.90
21001;DHT22;10658;50.920;12.238;2022-11-22T02:44:58;-1.90;99.90
21001;DHT22;10658;50.920;12.238;2022-11-22T02:49:00;-1.90;99.90
21001;DHT22;10658;50.920;12.238;2022-11-22T02:53:03;-1.80;99.90
21001;DHT22;10658;50.920;12.238;2022-11-22T02:57:04;-1.80;99.90
21001;DHT22;10658;50.920;12.238;2022-11-22T03:01:06;-1.70;99.90
21001;DHT22;10658;50.920;12.238;2022-11-22T03:05:07;-1.70;99.90
21001;DHT22;10658;50.920;12.238;2022-11-22T03:09:08;-1.60;99.90
21001;DHT22;10658;50.920;12.238;2022-11-22T03:13:09;-1.60;99.90
21001;DHT22;10658;50.920;12.238;2022-11-22T03:17:11;-1.60;99.90
21001;DHT22;10658;50.920;12.238;2022-11-22T03:21:13;-1.60;99.90
21001;DHT22;10658;50.920;12.238;2022-11-22T03:25:15;-1.60;99.90
21001;DHT22;10658;50.920;12.238;2022-11-22T03:29:17;-1.60;99.90
21001;DHT22;10658;50.920;12.238;2022-11-22T03:33:18;-1.60;99.90
21001;DHT22;10658;50.920;12.238;2022-11-22T03:37:19;-1.60;99.90
21001;DHT22;10658;50.920;12.238;2022-11-22T03:41:20;-1.50;99.90
21001;DHT22;10658;50.920;12.238;2022-11-22T03:45:22;-1.50;99.90
21001;DHT22;10658;50.920;12.238;2022-11-22T03:49:23;-1.50;99.90
21001;DHT22;10658;50.920;12.238;2022-11-22T03:53:25;-1.40;99.90
21001;DHT22;10658;50.920;12.238;2022-11-22T03:57:25;-1.40;99.90
21001;DHT22;10658;50.920;12.238;2022-11-22T04:01:27;-1.40;99.90
21001;DHT22;10658;50.920;12.238;2022-11-22T04:05:28;-1.50;99.90
21001;DHT22;10658;50.920;12.238;2022-11-22T04:09:29;-1.60;99.90
21001;DHT22;10658;50.920;12.238;2022-11-22T04:13:30;-1.60;99.90
21001;DHT22;10658;50.920;12.238;2022-11-22T04:17:50;-1.70;99.90
21001;DHT22;10658;50.920;12.238;2022-11-22T04:21:51;-1.70;99.90
21001;DHT22;10658;50.920;12.238;2022-11-22T04:25:54;-1.70;99.90
21001;DHT22;10658;50.920;12.238;2022-11-22T04:29:55;-1.60;99.90
21001;DHT22;10658;50.920;12.238;2022-11-22T04:33:57;-1.50;99.90
21001;DHT22;10658;50.920;12.238;2022-11-22T04:37:58;-1.50;99.90
21001;DHT22;10658;50.920;12.238;2022-11-22T04:41:59;-1.50;99.90
21001;DHT22;10658;50.920;12.238;2022-11-22T04:46:19;-1.40;99.90
21001;DHT22;10658;50.920;12.238;2022-11-22T04:50:20;-1.40;99.90
21001;DHT22;10658;50.920;12.238;2022-11-22T04:54:40;-1.40;99.90
21001;DHT22;10658;50.920;12.238;2022-11-22T04:58:42;-1.30;99.90
21001;DHT22;10658;50.920;12.238;2022-11-22T05:02:44;-1.30;99.90
21001;DHT22;10658;50.920;12.238;2022-11-22T05:06:46;-1.30;99.90
21001;DHT22;10658;50.920;12.238;2022-11-22T05:10:48;-1.30;99.90
21001;DHT22;10658;50.920;12.238;2022-11-22T05:14:58;-1.30;99.90
21001;DHT22;10658;50.920;12.238;2022-11-22T05:19:21;-1.20;99.90
21001;DHT22;10658;50.920;12.238;2022-11-22T05:23:23;-1.20;99.90
21001;DHT22;10658;50.920;12.238;2022-11-22T05:27:42;-1.20;99.90
21001;DHT22;10658;50.920;12.238;2022-11-22T05:31:43;-1.20;99.90
21001;DHT22;10658;50.920;12.238;2022-11-22T05:35:44;-1.20;99.90
21001;DHT22;10658;50.920;12.238;2022-11-22T05:39:46;-1.10;99.90
21001;DHT22;10658;50.920;12.238;2022-11-22T05:43:48;-1.10;99.90
21001;DHT22;10658;50.920;12.238;2022-11-22T05:47:49;-1.10;99.90
21001;DHT22;10658;50.920;12.238;2022-11-22T05:51:50;-1.10;99.90
21001;DHT22;10658;50.920;12.238;2022-11-22T05:55:51;-1.20;99.90
21001;DHT22;10658;50.920;12.238;2022-11-22T05:59:53;-1.20;99.90
21001;DHT22;10658;50.920;12.238;2022-11-22T06:03:54;-1.20;99.90
21001;DHT22;10658;50.920;12.238;2022-11-22T06:07:58;-1.20;99.90
21001;DHT22;10658;50.920;12.238;2022-11-22T06:12:01;-1.20;99.90
21001;DHT22;10658;50.920;12.238;2022-11-22T06:16:03;-1.10;99.90
21001;DHT22;10658;50.920;12.238;2022-11-22T06:20:04;-1.00;99.90
21001;DHT22;10658;50.920;12.238;2022-11-22T06:24:07;-1.00;99.90
21001;DHT22;10658;50.920;12.238;2022-11-22T06:28:10;-0.80;99.90
21001;DHT22;10658;50.920;12.238;2022-11-22T06:32:11;-0.60;99.90
21001;DHT22;10658;50.920;12.238;2022-11-22T06:36:16;-0.30;99.90
21001;DHT22;10658;50.920;12.238;2022-11-22T06:40:17;-0.30;99.90
21001;DHT22;10658;50.920;12.238;2022-11-22T06:44:18;-0.20;99.90
21001;DHT22;10658;50.920;12.238;2022-11-22T06:48:19;0.00;99.90
21001;DHT22;10658;50.920;12.238;2022-11-22T06:52:21;0.00;99.90
21001;DHT22;10658;50.920;12.238;2022-11-22T06:56:31;0.10;99.90
21001;DHT22;10658;50.920;12.238;2022-11-22T07:00:33;0.40;99.90
21001;DHT22;10658;50.920;12.238;2022-11-22T07:04:34;0.70;99.90
21001;DHT22;10658;50.920;12.238;2022-11-22T07:08:37;0.70;99.90
21001;DHT22;10658;50.920;12.238;2022-11-22T07:12:39;0.60;99.90
21001;DHT22;10658;50.920;12.238;2022-11-22T07:16:42;0.70;99.90
21001;DHT22;10658;50.920;12.238;2022-11-22T07:20:44;0.70;99.90
21001;DHT22;10658;50.920;12.238;2022-11-22T07:24:46;0.80;99.90
21001;DHT22;10658;50.920;12.238;2022-11-22T07:28:48;0.90;99.90
21001;DHT22;10658;50.920;12.238;2022-11-22T07:32:49;0.90;99.90
21001;DHT22;10658;50.920;12.238;2022-11-22T07:36:51;1.00;99.90
21001;DHT22;10658;50.920;12.238;2022-11-22T07:40:52;1.00;99.90
21001;DHT22;10658;50.920;12.238;2022-11-22T07:44:53;1.00;99.90
21001;DHT22;10658;50.920;12.238;2022-11-22T07:48:56;1.10;99.90
21001;DHT22;10658;50.920;12.238;2022-11-22T07:52:59;1.00;99.90
21001;DHT22;10658;50.920;12.238;2022-11-22T07:57:01;1.00;99.90
21001;DHT22;10658;50.920;12.238;2022-11-22T08:01:07;1.00;99.90
21001;DHT22;10658;50.920;12.238;2022-11-22T08:05:10;1.10;99.90
21001;DHT22;10658;50.920;12.238;2022-11-22T08:09:12;1.10;99.90
21001;DHT22;10658;50.920;12.238;2022-11-22T08:13:14;1.10;99.90
21001;DHT22;10658;50.920;12.238;2022-11-22T08:17:15;1.20;99.90
21001;DHT22;10658;50.920;12.238;2022-11-22T08:21:18;1.30;99.90
21001;DHT22;10658;50.920;12.238;2022-11-22T08:25:19;1.40;99.90
21001;DHT22;10658;50.920;12.238;2022-11-22T08:29:39;1.50;99.90
21001;DHT22;10658;50.920;12.238;2022-11-22T08:34:03;1.60;99.90
21001;DHT22;10658;50.920;12.238;2022-11-22T08:38:05;1.80;99.90
21001;DHT22;10658;50.920;12.238;2022-11-22T08:42:07;2.00;99.90
21001;DHT22;10658;50.920;12.238;2022-11-22T08:46:08;2.20;99.90
21001;DHT22;10658;50.920;12.238;2022-11-22T08:50:09;2.30;99.90
21001;DHT22;10658;50.920;12.238;2022-11-22T08:54:12;2.50;99.90
21001;DHT22;10658;50.920;12.238;2022-11-22T08:58:13;2.60;99.90
21001;DHT22;10658;50.920;12.238;2022-11-22T09:02:15;2.90;99.90
21001;DHT22;10658;50.920;12.238;2022-11-22T09:06:18;3.10;99.90
21001;DHT22;10658;50.920;12.238;2022-11-22T09:10:20;3.30;99.90
21001;DHT22;10658;50.920;12.238;2022-11-22T09:14:22;3.40;99.90
21001;DHT22;10658;50.920;12.238;2022-11-22T09:18:24;3.50;99.90
21001;DHT22;10658;50.920;12.238;2022-11-22T09:22:26;3.60;99.90
21001;DHT22;10658;50.920;12.238;2022-11-22T09:26:28;3.70;99.90
21001;DHT22;10658;50.920;12.238;2022-11-22T09:30:30;3.90;99.90
21001;DHT22;10658;50.920;12.238;2022-11-22T09:34:31;3.90;99.90
21001;DHT22;10658;50.920;12.238;2022-11-22T09:38:34;4.00;99.90
21001;DHT22;10658;50.920;12.238;2022-11-22T09:43:05;4.10;99.90
21001;DHT22;10658;50.920;12.238;2022-11-22T09:47:21;4.20;99.90
21001;DHT22;10658;50.920;12.238;2022-11-22T09:51:32;4.30;99.90
21001;DHT22;10658;50.920;12.238;2022-11-22T09:55:38;4.40;99.90
21001;DHT22;10658;50.920;12.238;2022-11-22T09:59:44;4.40;99.90
21001;DHT22;10658;50.920;12.238;2022-11-22T10:04:00;4.50;99.90
21001;DHT22;10658;50.920;12.238;2022-11-22T10:13:14;4.40;99.90
21001;DHT22;10658;50.920;12.238;2022-11-22T10:17:27;4.40;99.90
21001;DHT22;10658;50.920;12.238;2022-11-22T10:21:29;4.40;99.90
21001;DHT22;10658;50.920;12.238;2022-11-22T10:25:38;4.40;99.90
21001;DHT22;10658;50.920;12.238;2022-11-22T10:34:22;4.40;99.90
21001;DHT22;10658;50.920;12.238;2022-11-22T10:38:32;4.50;99.90
21001;DHT22;10658;50.920;12.238;2022-11-22T11:00:15;5.00;99.90
21001;DHT22;10658;50.920;12.238;2022-11-22T11:04:18;5.30;99.90
21001;DHT22;10658;50.920;12.238;2022-11-22T11:09:02;5.50;99.90
21001;DHT22;10658;50.920;12.238;2022-11-22T11:13:20;5.60;99.90
21001;DHT22;10658;50.920;12.238;2022-11-22T11:17:27;5.70;99.90
21001;DHT22;10658;50.920;12.238;2022-11-22T11:21:29;5.80;99.90
21001;DHT22;10658;50.920;12.238;2022-11-22T11:25:35;5.80;99.90
21001;DHT22;10658;50.920;12.238;2022-11-22T11:29:54;5.90;99.90
21001;DHT22;10658;50.920;12.238;2022-11-22T11:38:47;6.00;99.90
21001;DHT22;10658;50.920;12.238;2022-11-22T11:43:14;6.30;99.90
21001;DHT22;10658;50.920;12.238;2022-11-22T11:47:33;6.60;99.90
21001;DHT22;10658;50.920;12.238;2022-11-22T11:52:17;6.50;99.90
21001;DHT22;10658;50.920;12.238;2022-11-22T12:00:49;6.80;99.90
21001;DHT22;10658;50.920;12.238;2022-11-22T12:09:00;6.90;99.90
21001;DHT22;10658;50.920;12.238;2022-11-22T12:13:28;6.90;99.90
21001;DHT22;10658;50.920;12.238;2022-11-22T12:17:35;7.00;99.90
21001;DHT22;10658;50.920;12.238;2022-11-22T12:22:08;7.00;99.90
21001;DHT22;10658;50.920;12.238;2022-11-22T12:26:13;6.80;99.90
21001;DHT22;10658;50.920;12.238;2022-11-22T12:30:22;6.80;99.90
21001;DHT22;10658;50.920;12.238;2022-11-22T12:34:57;6.80;99.90
21001;DHT22;10658;50.920;12.238;2022-11-22T12:38:58;6.80;99.90
21001;DHT22;10658;50.920;12.238;2022-11-22T12:43:26;6.80;99.90
21001;DHT22;10658;50.920;12.238;2022-11-22T12:47:35;6.80;99.90
21001;DHT22;10658;50.920;12.238;2022-11-22T12:51:42;6.70;99.90
21001;DHT22;10658;50.920;12.238;2022-11-22T13:00:12;6.60;99.90
21001;DHT22;10658;50.920;12.238;2022-11-22T13:04:21;6.50;99.90
21001;DHT22;10658;50.920;12.238;2022-11-22T13:08:35;6.50;99.90
21001;DHT22;10658;50.920;12.238;2022-11-22T13:12:38;6.60;99.90
21001;DHT22;10658;50.920;12.238;2022-11-22T13:16:41;6.50;99.90
21001;DHT22;10658;50.920;12.238;2022-11-22T13:25:45;6.50;99.90
21001;DHT22;10658;50.920;12.238;2022-11-22T13:29:48;6.60;99.90
21001;DHT22;10658;50.920;12.238;2022-11-22T13:33:54;6.50;99.90
21001;DHT22;10658;50.920;12.238;2022-11-22T13:37:58;6.60;99.90
21001;DHT22;10658;50.920;12.238;2022-11-22T13:42:02;6.60;99.90
21001;DHT22;10658;50.920;12.238;2022-11-22T13:55:29;6.40;99.90
21001;DHT22;10658;50.920;12.238;2022-11-22T13:59:31;6.30;99.90
21001;DHT22;10658;50.920;12.238;2022-11-22T14:03:41;6.20;99.90
21001;DHT22;10658;50.920;12.238;2022-11-22T14:07:43;6.10;99.90
21001;DHT22;10658;50.920;12.238;2022-11-22T14:11:58;6.10;99.90
21001;DHT22;10658;50.920;12.238;2022-11-22T14:30:59;5.80;99.90
21001;DHT22;10658;50.920;12.238;2022-11-22T14:39:58;5.50;99.90
21001;DHT22;10658;50.920;12.238;2022-11-22T14:48:22;5.10;99.90
21001;DHT22;10658;50.920;12.238;2022-11-22T14:52:30;5.00;99.90
21001;DHT22;10658;50.920;12.238;2022-11-22T14:56:57;4.90;99.90
21001;DHT22;10658;50.920;12.238;2022-11-22T15:18:53;4.70;99.90
21001;DHT22;10658;50.920;12.238;2022-11-22T15:23:13;4.60;99.90
21001;DHT22;10658;50.920;12.238;2022-11-22T15:27:30;4.60;99.90
21001;DHT22;10658;50.920;12.238;2022-11-22T15:31:56;4.50;99.90
21001;DHT22;10658;50.920;12.238;2022-11-22T15:40:40;4.40;99.90
21001;DHT22;10658;50.920;12.238;2022-11-22T15:44:42;4.30;99.90
21001;DHT22;10658;50.920;12.238;2022-11-22T15:48:49;4.30;99.90
21001;DHT22;10658;50.920;12.238;2022-11-22T15:52:53;4.20;99.90
21001;DHT22;10658;50.920;12.238;2022-11-22T15:57:00;4.30;99.90
21001;DHT22;10658;50.920;12.238;2022-11-22T16:01:04;4.20;99.90
21001;DHT22;10658;50.920;12.238;2022-11-22T16:05:07;4.20;99.90
21001;DHT22;10658;50.920;12.238;2022-11-22T16:09:22;4.10;99.90
21001;DHT22;10658;50.920;12.238;2022-11-22T16:13:28;4.00;99.90
21001;DHT22;10658;50.920;12.238;2022-11-22T16:17:37;3.90;99.90
21001;DHT22;10658;50.920;12.238;2022-11-22T16:21:58;3.80;99.90
21001;DHT22;10658;50.920;12.238;2022-11-22T16:26:20;3.70;99.90
21001;DHT22;10658;50.920;12.238;2022-11-22T16:30:24;3.60;99.90
21001;DHT22;10658;50.920;12.238;2022-11-22T16:34:25;3.60;99.90
21001;DHT22;10658;50.920;12.238;2022-11-22T16:38:28;3.60;99.90
21001;DHT22;10658;50.920;12.238;2022-11-22T16:42:29;3.50;99.90
21001;DHT22;10658;50.920;12.238;2022-11-22T16:46:31;3.60;99.90
21001;DHT22;10658;50.920;12.238;2022-11-22T16:50:32;3.50;99.90
21001;DHT22;10658;50.920;12.238;2022-11-22T16:54:33;3.50;99.90
21001;DHT22;10658;50.920;12.238;2022-11-22T16:58:36;3.50;99.90
21001;DHT22;10658;50.920;12.238;2022-11-22T17:02:39;3.50;99.90
21001;DHT22;10658;50.920;12.238;2022-11-22T17:06:40;3.50;99.90
21001;DHT22;10658;50.920;12.238;2022-11-22T17:10:46;3.50;99.90
21001;DHT22;10658;50.920;12.238;2022-11-22T17:14:50;3.50;99.90
21001;DHT22;10658;50.920;12.238;2022-11-22T17:18:51;3.40;99.90
21001;DHT22;10658;50.920;12.238;2022-11-22T17:22:52;3.30;99.90
21001;DHT22;10658;50.920;12.238;2022-11-22T17:26:54;3.30;99.90
21001;DHT22;10658;50.920;12.238;2022-11-22T17:30:58;3.30;99.90
21001;DHT22;10658;50.920;12.238;2022-11-22T17:35:21;3.20;99.90
21001;DHT22;10658;50.920;12.238;2022-11-22T17:39:23;3.10;99.90
21001;DHT22;10658;50.920;12.238;2022-11-22T17:43:25;3.10;99.90
21001;DHT22;10658;50.920;12.238;2022-11-22T17:47:27;3.00;99.90
21001;DHT22;10658;50.920;12.238;2022-11-22T17:51:29;3.00;99.90
21001;DHT22;10658;50.920;12.238;2022-11-22T17:55:31;3.00;99.90
21001;DHT22;10658;50.920;12.238;2022-11-22T17:59:33;2.90;99.90
21001;DHT22;10658;50.920;12.238;2022-11-22T18:03:34;2.90;99.90
21001;DHT22;10658;50.920;12.238;2022-11-22T18:07:35;2.90;99.90
21001;DHT22;10658;50.920;12.238;2022-11-22T18:11:38;2.90;99.90
21001;DHT22;10658;50.920;12.238;2022-11-22T18:15:39;2.90;99.90
21001;DHT22;10658;50.920;12.238;2022-11-22T18:19:41;2.90;99.90
21001;DHT22;10658;50.920;12.238;2022-11-22T18:23:44;2.80;99.90
21001;DHT22;10658;50.920;12.238;2022-11-22T18:27:46;2.80;99.90
21001;DHT22;10658;50.920;12.238;2022-11-22T18:31:46;2.70;99.90
21001;DHT22;10658;50.920;12.238;2022-11-22T18:35:59;2.60;99.90
21001;DHT22;10658;50.920;12.238;2022-11-22T18:40:00;2.50;99.90
21001;DHT22;10658;50.920;12.238;2022-11-22T18:44:02;2.30;99.90
21001;DHT22;10658;50.920;12.238;2022-11-22T18:48:04;2.30;99.90
21001;DHT22;10658;50.920;12.238;2022-11-22T18:52:06;2.20;99.90
21001;DHT22;10658;50.920;12.238;2022-11-22T18:56:10;2.20;99.90
21001;DHT22;10658;50.920;12.238;2022-11-22T19:00:11;2.20;99.90
21001;DHT22;10658;50.920;12.238;2022-11-22T19:04:15;2.20;99.90
21001;DHT22;10658;50.920;12.238;2022-11-22T19:08:25;2.30;99.90
21001;DHT22;10658;50.920;12.238;2022-11-22T19:12:27;2.30;99.90
21001;DHT22;10658;50.920;12.238;2022-11-22T19:16:29;2.20;99.90
21001;DHT22;10658;50.920;12.238;2022-11-22T19:20:31;2.10;99.90
21001;DHT22;10658;50.920;12.238;2022-11-22T19:24:34;2.10;99.90
21001;DHT22;10658;50.920;12.238;2022-11-22T19:28:37;2.10;99.90
21001;DHT22;10658;50.920;12.238;2022-11-22T19:32:40;2.10;99.90
21001;DHT22;10658;50.920;12.238;2022-11-22T19:36:41;2.10;99.90
21001;DHT22;10658;50.920;12.238;2022-11-22T19:40:43;2.00;99.90
21001;DHT22;10658;50.920;12.238;2022-11-22T19:44:44;1.90;99.90
21001;DHT22;10658;50.920;12.238;2022-11-22T19:53:10;1.80;99.90
21001;DHT22;10658;50.920;12.238;2022-11-22T19:57:12;1.80;99.90
21001;DHT22;10658;50.920;12.238;2022-11-22T20:01:12;1.80;99.90
21001;DHT22;10658;50.920;12.238;2022-11-22T20:05:15;1.90;99.90
21001;DHT22;10658;50.920;12.238;2022-11-22T20:09:16;1.90;99.90
21001;DHT22;10658;50.920;12.238;2022-11-22T20:13:17;1.90;99.90
21001;DHT22;10658;50.920;12.238;2022-11-22T20:17:21;1.90;99.90
21001;DHT22;10658;50.920;12.238;2022-11-22T20:21:24;1.90;99.90
21001;DHT22;10658;50.920;12.238;2022-11-22T20:25:26;1.90;99.90
21001;DHT22;10658;50.920;12.238;2022-11-22T20:29:27;2.00;99.90
21001;DHT22;10658;50.920;12.238;2022-11-22T20:33:27;2.10;99.90
21001;DHT22;10658;50.920;12.238;2022-11-22T20:37:28;2.30;99.90
21001;DHT22;10658;50.920;12.238;2022-11-22T20:41:30;2.50;99.90
21001;DHT22;10658;50.920;12.238;2022-11-22T20:45:31;2.80;99.90
21001;DHT22;10658;50.920;12.238;2022-11-22T20:49:32;2.90;99.90
21001;DHT22;10658;50.920;12.238;2022-11-22T20:53:33;2.90;99.90
21001;DHT22;10658;50.920;12.238;2022-11-22T20:57:34;2.90;99.90
21001;DHT22;10658;50.920;12.238;2022-11-22T21:01:36;2.80;99.90
21001;DHT22;10658;50.920;12.238;2022-11-22T21:05:37;2.90;99.90
21001;DHT22;10658;50.920;12.238;2022-11-22T21:09:39;2.80;99.90
21001;DHT22;10658;50.920;12.238;2022-11-22T21:13:41;2.70;99.90
21001;DHT22;10658;50.920;12.238;2022-11-22T21:17:44;2.70;99.90
21001;DHT22;10658;50.920;12.238;2022-11-22T21:21:45;2.80;99.90
21001;DHT22;10658;50.920;12.238;2022-11-22T21:25:47;2.80;99.90
21001;DHT22;10658;50.920;12.238;2022-11-22T21:29:50;2.60;99.90
21001;DHT22;10658;50.920;12.238;2022-11-22T21:33:52;2.70;99.90
21001;DHT22;10658;50.920;12.238;2022-11-22T21:37:53;2.60;99.90
21001;DHT22;10658;50.920;12.238;2022-11-22T21:41:55;2.60;99.90
21001;DHT22;10658;50.920;12.238;2022-11-22T21:45:57;2.60;99.90
21001;DHT22;10658;50.920;12.238;2022-11-22T21:49:58;2.70;99.90
21001;DHT22;10658;50.920;12.238;2022-11-22T21:54:01;2.80;99.90
21001;DHT22;10658;50.920;12.238;2022-11-22T21:58:03;2.90;99.90
21001;DHT22;10658;50.920;12.238;2022-11-22T22:02:04;2.90;99.90
21001;DHT22;10658;50.920;12.238;2022-11-22T22:06:06;2.80;99.90
21001;DHT22;10658;50.920;12.238;2022-11-22T22:10:08;2.80;99.90
21001;DHT22;10658;50.920;12.238;2022-11-22T22:14:10;2.90;99.90
21001;DHT22;10658;50.920;12.238;2022-11-22T22:18:12;3.00;99.90
21001;DHT22;10658;50.920;12.238;2022-11-22T22:22:13;2.90;99.90
21001;DHT22;10658;50.920;12.238;2022-11-22T22:26:16;2.90;99.90
21001;DHT22;10658;50.920;12.238;2022-11-22T22:30:17;2.80;99.90
21001;DHT22;10658;50.920;12.238;2022-11-22T22:34:19;2.70;99.90
21001;DHT22;10658;50.920;12.238;2022-11-22T22:38:22;2.80;99.90
21001;DHT22;10658;50.920;12.238;2022-11-22T22:42:24;2.70;99.90
21001;DHT22;10658;50.920;12.238;2022-11-22T22:46:24;2.70;99.90
21001;DHT22;10658;50.920;12.238;2022-11-22T22:50:27;2.60;99.90
21001;DHT22;10658;50.920;12.238;2022-11-22T22:54:28;2.50;99.90
21001;DHT22;10658;50.920;12.238;2022-11-22T22:58:30;2.40;99.90
21001;DHT22;10658;50.920;12.238;2022-11-22T23:02:32;2.40;99.90
21001;DHT22;10658;50.920;12.238;2022-11-22T23:06:35;2.20;99.90
21001;DHT22;10658;50.920;12.238;2022-11-22T23:10:36;2.20;99.90
21001;DHT22;10658;50.920;12.238;2022-11-22T23:14:39;2.20;99.90
21001;DHT22;10658;50.920;12.238;2022-11-22T23:18:43;2.10;99.90
21001;DHT22;10658;50.920;12.238;2022-11-22T23:22:45;2.00;99.90
21001;DHT22;10658;50.920;12.238;2022-11-22T23:26:47;1.80;99.90
21001;DHT22;10658;50.920;12.238;2022-11-22T23:30:49;1.60;99.90
21001;DHT22;10658;50.920;12.238;2022-11-22T23:34:52;1.60;99.90
21001;DHT22;10658;50.920;12.238;2022-11-22T23:38:53;1.60;99.90
21001;DHT22;10658;50.920;12.238;2022-11-22T23:42:58;1.70;99.90
21001;DHT22;10658;50.920;12.238;2022-11-22T23:46:59;2.00;99.90
21001;DHT22;10658;50.920;12.238;2022-11-22T23:51:03;1.90;99.90
21001;DHT22;10658;50.920;12.238;2022-11-22T23:55:05;2.00;99.90
21001;DHT22;10658;50.920;12.238;2022-11-22T23:59:06;2.30;99.90
